createdAt,value
2023-01-17T00:02:29.366Z,4.93
2023-01-17T00:05:16.295Z,2.77
2023-01-17T00:08:03.087Z,4.10
2023-01-17T00:10:31.673Z,7.20
2023-01-17T00:13:04.424Z,2.60
2023-01-17T00:15:33.313Z,2.83
2023-01-17T00:18:01.986Z,4.47
2023-01-17T00:20:52.911Z,4.90
2023-01-17T00:23:44.936Z,3.80
2023-01-17T00:26:19.548Z,5.23
2023-01-17T00:28:48.341Z,6.53
2023-01-17T00:31:17.422Z,5.17
2023-01-17T00:33:46.336Z,4.97
2023-01-17T00:36:14.623Z,4.57
2023-01-17T00:38:43.851Z,3.67
2023-01-17T00:41:16.360Z,4.97
2023-01-17T00:44:03.227Z,3.83
2023-01-17T00:46:50.005Z,5.07
2023-01-17T00:49:36.663Z,6.40
2023-01-17T00:52:23.905Z,8.07
2023-01-17T00:55:10.565Z,9.10
2023-01-17T00:57:57.990Z,6.23
2023-01-17T01:00:44.711Z,3.83
2023-01-17T01:03:32.271Z,4.23
2023-01-17T01:06:19.091Z,6.10
2023-01-17T01:09:06.014Z,5.10
2023-01-17T01:11:52.635Z,5.17
2023-01-17T01:14:39.541Z,12.03
2023-01-17T01:17:26.935Z,14.53
2023-01-17T01:20:13.693Z,13.13
2023-01-17T01:23:00.340Z,16.97
2023-01-17T01:25:46.854Z,24.43
2023-01-17T01:28:34.225Z,19.87
2023-01-17T01:31:22.095Z,20.63
2023-01-17T01:33:53.073Z,31.47
2023-01-17T01:36:21.691Z,20.67
2023-01-17T01:38:51.176Z,21.10
2023-01-17T01:41:19.759Z,15.63
2023-01-17T01:43:50.101Z,17.40
2023-01-17T01:46:33.778Z,10.20
2023-01-17T01:49:29.403Z,6.30
2023-01-17T01:52:03.123Z,5.23
2023-01-17T01:55:04.080Z,6.63
2023-01-17T01:57:38.861Z,4.67
2023-01-17T02:00:21.336Z,6.10
2023-01-17T02:02:50.709Z,7.53
2023-01-17T02:05:21.863Z,4.80
2023-01-17T02:08:00.158Z,7.50
2023-01-17T02:10:29.239Z,5.63
2023-01-17T02:12:58.216Z,6.70
2023-01-17T02:15:42.360Z,8.00
2023-01-17T02:18:31.654Z,4.50
2023-01-17T02:21:24.019Z,8.90
2023-01-17T02:24:01.162Z,8.23
2023-01-17T02:26:48.018Z,10.53
2023-01-17T02:29:34.711Z,9.63
2023-01-17T02:32:17.577Z,10.83
2023-01-17T02:35:04.767Z,7.83
2023-01-17T02:37:36.270Z,9.57
2023-01-17T02:40:26.269Z,9.17
2023-01-17T02:42:59.637Z,9.40
2023-01-17T02:45:28.676Z,9.50
2023-01-17T02:47:57.116Z,11.07
2023-01-17T02:50:29.481Z,8.90
2023-01-17T02:53:16.713Z,8.40
2023-01-17T02:56:06.494Z,8.43
2023-01-17T02:58:49.973Z,14.17
2023-01-17T03:01:31.068Z,6.67
2023-01-17T03:04:13.944Z,9.57
2023-01-17T03:06:55.699Z,7.60
2023-01-17T03:09:26.326Z,8.53
2023-01-17T03:11:55.312Z,7.03
2023-01-17T03:14:23.720Z,8.60
2023-01-17T03:16:52.453Z,8.73
2023-01-17T03:19:20.963Z,6.40
2023-01-17T03:21:50.204Z,12.30
2023-01-17T03:24:18.615Z,11.30
2023-01-17T03:26:48.710Z,9.17
2023-01-17T03:29:17.889Z,11.87
2023-01-17T03:31:47.384Z,11.33
2023-01-17T03:34:15.945Z,8.07
2023-01-17T03:36:44.337Z,8.40
2023-01-17T03:39:12.790Z,7.60
2023-01-17T03:41:41.240Z,13.70
2023-01-17T03:44:09.645Z,8.80
2023-01-17T03:46:38.079Z,8.97
2023-01-17T03:49:06.518Z,9.17
2023-01-17T03:51:34.964Z,9.27
2023-01-17T03:54:03.408Z,10.10
2023-01-17T03:56:31.872Z,10.70
2023-01-17T03:59:00.354Z,10.73
2023-01-17T04:01:28.836Z,10.83
2023-01-17T04:03:57.355Z,10.50
2023-01-17T04:06:26.427Z,11.67
2023-01-17T04:08:55.233Z,12.20
2023-01-17T04:11:24.329Z,8.37
2023-01-17T04:13:52.740Z,6.50
2023-01-17T04:16:23.125Z,8.33
2023-01-17T04:18:51.559Z,8.60
2023-01-17T04:21:20.155Z,11.57
2023-01-17T04:23:48.731Z,10.40
2023-01-17T04:26:17.218Z,13.30
2023-01-17T04:28:45.679Z,8.60
2023-01-17T04:31:18.266Z,9.17
2023-01-17T04:33:46.723Z,7.73
2023-01-17T04:36:15.150Z,9.23
2023-01-17T04:38:43.883Z,9.30
2023-01-17T04:41:12.323Z,6.03
2023-01-17T04:43:40.848Z,6.90
2023-01-17T04:46:11.677Z,8.80
2023-01-17T04:48:40.176Z,9.07
2023-01-17T04:51:08.719Z,12.53
2023-01-17T04:53:37.247Z,5.73
2023-01-17T04:56:06.095Z,7.57
2023-01-17T04:58:34.611Z,9.50
2023-01-17T05:01:08.438Z,9.20
2023-01-17T05:03:37.471Z,5.60
2023-01-17T05:06:05.915Z,6.60
2023-01-17T05:08:34.393Z,6.70
2023-01-17T05:11:02.860Z,7.07
2023-01-17T05:13:31.287Z,10.33
2023-01-17T05:15:59.971Z,8.57
2023-01-17T05:18:28.451Z,8.70
2023-01-17T05:21:03.606Z,7.90
2023-01-17T05:23:32.051Z,7.87
2023-01-17T05:26:00.552Z,8.50
2023-01-17T05:28:29.015Z,8.33
2023-01-17T05:30:57.489Z,5.70
2023-01-17T05:33:25.997Z,7.33
2023-01-17T05:35:54.851Z,7.80
2023-01-17T05:38:24.446Z,6.40
2023-01-17T05:40:53.447Z,9.90
2023-01-17T05:43:23.644Z,7.60
2023-01-17T05:45:52.440Z,6.63
2023-01-17T05:48:21.535Z,5.30
2023-01-17T05:50:50.029Z,4.93
2023-01-17T05:53:18.548Z,5.00
2023-01-17T05:55:47.051Z,6.83
2023-01-17T05:58:18.807Z,4.50
2023-01-17T06:00:48.041Z,4.70
2023-01-17T06:03:17.517Z,4.97
2023-01-17T06:05:46.604Z,5.70
2023-01-17T06:08:15.747Z,5.43
2023-01-17T06:10:44.202Z,7.77
2023-01-17T06:13:16.132Z,5.23
2023-01-17T06:15:44.707Z,9.53
2023-01-17T06:18:15.448Z,5.33
2023-01-17T06:20:44.451Z,6.20
2023-01-17T06:23:15.788Z,5.00
2023-01-17T06:25:47.875Z,5.60
2023-01-17T06:28:18.873Z,5.50
2023-01-17T06:30:48.177Z,5.83
2023-01-17T06:33:17.826Z,6.57
2023-01-17T06:35:50.918Z,6.53
2023-01-17T06:38:20.043Z,5.03
2023-01-17T06:40:49.431Z,6.77
2023-01-17T06:43:18.506Z,6.40
2023-01-17T06:45:47.176Z,9.77
2023-01-17T06:48:16.358Z,9.10
2023-01-17T06:50:44.855Z,12.20
2023-01-17T06:53:13.467Z,13.80
2023-01-17T06:55:43.444Z,11.60
2023-01-17T06:58:12.089Z,10.63
2023-01-17T07:00:41.147Z,13.90
2023-01-17T07:03:24.554Z,6.93
2023-01-17T07:05:53.867Z,9.80
2023-01-17T07:08:22.346Z,7.70
2023-01-17T07:10:51.035Z,5.50
2023-01-17T07:13:19.489Z,5.40
2023-01-17T07:15:47.892Z,7.83
2023-01-17T07:18:21.283Z,5.83
2023-01-17T07:20:50.912Z,8.20
2023-01-17T07:23:23.962Z,9.33
2023-01-17T07:25:57.006Z,6.13
2023-01-17T07:28:26.586Z,7.93
2023-01-17T07:30:55.596Z,7.83
2023-01-17T07:33:24.169Z,8.70
2023-01-17T07:35:52.611Z,6.47
2023-01-17T07:38:21.601Z,8.53
2023-01-17T07:40:50.072Z,6.20
2023-01-17T07:43:18.574Z,7.40
2023-01-17T07:45:53.917Z,5.90
2023-01-17T07:48:25.599Z,5.50
2023-01-17T07:50:59.261Z,5.80
2023-01-17T07:53:30.639Z,8.30
2023-01-17T07:56:05.996Z,6.87
2023-01-17T07:58:35.481Z,6.17
2023-01-17T08:01:09.683Z,3.73
2023-01-17T08:03:40.815Z,4.87
2023-01-17T08:06:21.008Z,3.93
2023-01-17T08:08:49.820Z,7.43
2023-01-17T08:11:18.246Z,5.73
2023-01-17T08:13:46.676Z,7.53
2023-01-17T08:16:16.843Z,7.07
2023-01-17T08:18:45.324Z,6.63
2023-01-17T08:21:15.724Z,6.33
2023-01-17T08:23:48.981Z,6.27
2023-01-17T08:26:27.850Z,7.87
2023-01-17T08:28:57.995Z,11.83
2023-01-17T08:31:26.631Z,6.93
2023-01-17T08:33:55.143Z,7.23
2023-01-17T08:36:23.651Z,7.53
2023-01-17T08:38:53.568Z,6.23
2023-01-17T08:41:23.320Z,6.43
2023-01-17T08:43:52.998Z,5.73
2023-01-17T08:46:21.659Z,7.83
2023-01-17T08:48:53.725Z,6.90
2023-01-17T08:51:22.479Z,12.63
2023-01-17T08:53:50.897Z,9.93
2023-01-17T08:56:19.689Z,5.00
2023-01-17T08:58:48.445Z,4.80
2023-01-17T09:01:18.009Z,9.07
2023-01-17T09:03:46.630Z,5.60
2023-01-17T09:06:17.413Z,5.73
2023-01-17T09:08:47.854Z,5.03
2023-01-17T09:11:18.319Z,3.80
2023-01-17T09:13:46.711Z,5.10
2023-01-17T09:16:15.204Z,3.93
2023-01-17T09:18:44.075Z,6.70
2023-01-17T09:21:17.877Z,4.27
2023-01-17T09:23:46.703Z,3.83
2023-01-17T09:26:33.197Z,4.43
2023-01-17T09:29:01.848Z,3.63
2023-01-17T09:31:30.523Z,3.40
2023-01-17T09:33:59.874Z,3.60
2023-01-17T09:36:34.703Z,2.87
2023-01-17T09:39:04.365Z,5.83
2023-01-17T09:41:50.856Z,5.27
2023-01-17T09:44:42.556Z,5.03
2023-01-17T09:47:35.704Z,2.50
2023-01-17T09:50:35.414Z,6.00
2023-01-17T09:53:32.607Z,6.13
2023-01-17T09:56:11.988Z,2.97
2023-01-17T09:59:02.339Z,3.40
2023-01-17T10:01:47.739Z,3.60
2023-01-17T10:04:40.740Z,3.90
2023-01-17T10:07:48.499Z,4.07
2023-01-17T10:10:43.575Z,3.60
2023-01-17T10:13:45.090Z,5.13
2023-01-17T10:16:30.728Z,5.93
2023-01-17T10:19:21.020Z,4.07
2023-01-17T10:22:19.944Z,5.40
2023-01-17T10:25:14.639Z,3.27
2023-01-17T10:28:05.963Z,4.47
2023-01-17T10:30:43.396Z,3.73
2023-01-17T10:33:30.362Z,4.90
2023-01-17T10:36:08.800Z,6.30
2023-01-17T10:38:42.533Z,3.80
2023-01-17T10:41:19.499Z,3.97
2023-01-17T10:44:13.178Z,8.00
2023-01-17T10:47:13.960Z,7.73
2023-01-17T10:49:48.857Z,3.53
2023-01-17T10:52:25.755Z,3.10
2023-01-17T10:54:57.448Z,6.43
2023-01-17T10:57:28.231Z,6.67
2023-01-17T11:00:02.166Z,6.90
2023-01-17T11:02:40.727Z,4.10
2023-01-17T11:05:37.533Z,7.20
2023-01-17T11:08:14.444Z,4.70
2023-01-17T11:10:49.909Z,4.90
2023-01-17T11:13:38.179Z,5.47
2023-01-17T11:16:10.905Z,7.43
2023-01-17T11:18:42.782Z,7.40
2023-01-17T11:21:25.397Z,4.07
2023-01-17T11:23:58.097Z,3.27
2023-01-17T11:26:34.197Z,5.03
2023-01-17T11:29:29.249Z,4.87
2023-01-17T11:31:57.733Z,4.70
2023-01-17T11:34:30.218Z,5.27
2023-01-17T11:37:19.515Z,8.83
2023-01-17T11:39:49.070Z,4.83
2023-01-17T11:42:38.863Z,8.33
2023-01-17T11:45:28.939Z,8.63
2023-01-17T11:48:09.630Z,4.50
2023-01-17T11:50:54.997Z,7.33
2023-01-17T11:53:25.411Z,4.17
2023-01-17T11:56:46.564Z,5.17
2023-01-17T11:59:32.541Z,3.73
2023-01-17T12:02:37.778Z,3.73
2023-01-17T12:05:45.078Z,5.97
2023-01-17T12:08:43.801Z,4.57
2023-01-17T12:11:30.891Z,3.00
2023-01-17T12:14:32.583Z,4.57
2023-01-17T12:17:43.100Z,3.03
2023-01-17T12:20:21.997Z,3.63
2023-01-17T12:23:41.551Z,5.17
2023-01-17T12:26:57.644Z,3.60
2023-01-17T12:29:44.291Z,4.63
2023-01-17T12:33:02.785Z,3.87
2023-01-17T12:35:40.039Z,5.40
2023-01-17T12:38:27.358Z,15.00
2023-01-17T12:41:20.782Z,5.30
2023-01-17T12:43:51.815Z,5.87
2023-01-17T12:46:27.898Z,5.27
2023-01-17T12:49:20.091Z,5.23
2023-01-17T12:51:53.671Z,5.27
2023-01-17T12:54:40.935Z,4.03
2023-01-17T12:57:23.131Z,4.07
2023-01-17T12:59:52.160Z,7.33
2023-01-17T13:02:52.278Z,4.03
2023-01-17T13:05:26.911Z,4.80
2023-01-17T13:08:21.294Z,5.43
2023-01-17T13:11:29.154Z,4.43
2023-01-17T13:14:01.051Z,5.67
2023-01-17T13:16:35.071Z,7.50
2023-01-17T13:19:38.620Z,4.57
2023-01-17T13:22:11.222Z,4.20
2023-01-17T13:25:10.475Z,8.40
2023-01-17T13:27:50.479Z,5.37
2023-01-17T13:30:26.251Z,4.50
2023-01-17T13:33:08.021Z,2.87
2023-01-17T13:36:02.021Z,5.33
2023-01-17T13:38:58.452Z,5.70
2023-01-17T13:41:39.106Z,6.37
2023-01-17T13:44:25.067Z,3.60
2023-01-17T13:47:19.616Z,9.40
2023-01-17T13:49:50.442Z,3.80
2023-01-17T13:52:21.960Z,4.70
2023-01-17T13:55:01.873Z,3.87
2023-01-17T13:57:37.075Z,3.73
2023-01-17T14:00:17.358Z,2.83
2023-01-17T14:02:49.768Z,3.33
2023-01-17T14:05:24.085Z,5.03
2023-01-17T14:08:00.771Z,3.53
2023-01-17T14:10:35.485Z,6.07
2023-01-17T14:13:06.521Z,3.73
2023-01-17T14:15:48.538Z,3.13
2023-01-17T14:18:35.327Z,3.10
2023-01-17T14:21:19.009Z,3.33
2023-01-17T14:24:00.137Z,9.17
2023-01-17T14:26:42.747Z,5.20
2023-01-17T14:29:42.183Z,3.57
2023-01-17T14:32:23.236Z,6.23
2023-01-17T14:34:53.409Z,4.83
2023-01-17T14:37:33.951Z,4.93
2023-01-17T14:40:02.911Z,4.27
2023-01-17T14:42:33.748Z,7.33
2023-01-17T14:45:06.586Z,5.60
2023-01-17T14:47:41.152Z,3.50
2023-01-17T14:50:12.644Z,4.70
2023-01-17T14:52:41.106Z,3.63
2023-01-17T14:55:20.268Z,7.30
2023-01-17T14:57:58.981Z,6.30
2023-01-17T15:00:30.187Z,5.73
2023-01-17T15:03:00.255Z,4.93
2023-01-17T15:05:31.030Z,5.20
2023-01-17T15:08:00.244Z,4.37
2023-01-17T15:10:34.502Z,5.23
2023-01-17T15:13:10.451Z,5.20
2023-01-17T15:15:41.507Z,6.23
2023-01-17T15:18:21.342Z,4.70
2023-01-17T15:21:16.726Z,5.67
2023-01-17T15:23:53.816Z,6.83
2023-01-17T15:26:25.612Z,5.60
2023-01-17T15:29:01.283Z,6.30
2023-01-17T15:31:44.567Z,5.40
2023-01-17T15:34:33.518Z,7.17
2023-01-17T15:37:23.376Z,11.67
2023-01-17T15:39:52.138Z,12.23
2023-01-17T15:42:27.244Z,8.27
2023-01-17T15:44:58.643Z,5.13
2023-01-17T15:47:32.794Z,5.13
2023-01-17T15:50:03.254Z,7.37
2023-01-17T15:52:31.811Z,5.10
2023-01-17T15:55:02.273Z,5.63
2023-01-17T15:57:39.691Z,4.73
2023-01-17T16:00:16.338Z,2.90
2023-01-17T16:02:58.497Z,4.80
2023-01-17T16:05:26.907Z,11.03
2023-01-17T16:07:57.370Z,3.67
2023-01-17T16:10:32.584Z,6.50
2023-01-17T16:13:01.270Z,4.17
2023-01-17T16:15:30.474Z,3.90
2023-01-17T16:18:22.303Z,5.57
2023-01-17T16:21:16.587Z,3.60
2023-01-17T16:23:45.182Z,3.23
2023-01-17T16:26:13.590Z,5.27
2023-01-17T16:28:41.995Z,4.60
2023-01-17T16:31:10.558Z,2.87
2023-01-17T16:33:40.132Z,6.00
2023-01-17T16:36:12.409Z,5.47
2023-01-17T16:38:41.253Z,6.17
2023-01-17T16:41:10.027Z,4.30
2023-01-17T16:43:38.563Z,4.27
2023-01-17T16:46:07.948Z,3.73
2023-01-17T16:48:38.878Z,3.70
2023-01-17T16:51:09.258Z,3.10
2023-01-17T16:53:38.441Z,3.80
2023-01-17T16:56:15.461Z,4.47
2023-01-17T16:58:44.453Z,3.13
2023-01-17T17:01:18.327Z,2.80
2023-01-17T17:03:48.571Z,2.83
2023-01-17T17:06:17.062Z,3.10
2023-01-17T17:08:46.439Z,2.63
2023-01-17T17:11:18.420Z,3.03
2023-01-17T17:13:49.151Z,7.97
2023-01-17T17:16:21.756Z,2.40
2023-01-17T17:19:01.708Z,3.23
2023-01-17T17:21:32.659Z,3.40
2023-01-17T17:24:02.548Z,2.50
2023-01-17T17:26:36.386Z,3.27
2023-01-17T17:29:06.396Z,2.50
2023-01-17T17:31:34.881Z,4.20
2023-01-17T17:34:05.260Z,5.33
2023-01-17T17:36:34.248Z,2.23
2023-01-17T17:39:04.909Z,4.13
2023-01-17T17:41:40.335Z,2.23
2023-01-17T17:44:09.500Z,3.80
2023-01-17T17:46:38.408Z,3.50
2023-01-17T17:49:07.595Z,8.10
2023-01-17T17:51:40.961Z,3.47
2023-01-17T17:54:11.861Z,3.70
2023-01-17T17:56:41.312Z,7.33
2023-01-17T17:59:10.747Z,3.50
2023-01-17T18:01:39.555Z,3.17
2023-01-17T18:04:09.163Z,3.70
2023-01-17T18:06:39.385Z,2.50
2023-01-17T18:09:09.678Z,3.93
2023-01-17T18:11:40.222Z,2.80
2023-01-17T18:14:13.375Z,2.73
2023-01-17T18:16:44.780Z,2.77
2023-01-17T18:19:27.481Z,2.73
2023-01-17T18:21:56.161Z,3.40
2023-01-17T18:24:26.069Z,5.13
2023-01-17T18:27:00.205Z,4.63
2023-01-17T18:29:29.889Z,3.20
2023-01-17T18:31:58.730Z,5.23
2023-01-17T18:34:30.315Z,3.67
2023-01-17T18:36:59.112Z,3.27
2023-01-17T18:39:30.007Z,4.30
2023-01-17T18:41:59.079Z,3.70
2023-01-17T18:44:28.367Z,4.13
2023-01-17T18:46:59.011Z,4.03
2023-01-17T18:49:27.528Z,3.93
2023-01-17T18:51:55.939Z,2.40
2023-01-17T18:54:24.610Z,5.83
2023-01-17T18:56:53.469Z,6.83
2023-01-17T18:59:24.285Z,2.90
2023-01-17T19:01:53.101Z,4.57
2023-01-17T19:04:22.355Z,3.43
2023-01-17T19:06:50.906Z,14.13
2023-01-17T19:09:19.551Z,4.10
2023-01-17T19:11:48.213Z,2.53
2023-01-17T19:14:16.951Z,4.43
2023-01-17T19:16:46.052Z,4.60
2023-01-17T19:19:16.741Z,2.70
2023-01-17T19:21:45.728Z,4.50
2023-01-17T19:24:15.066Z,4.00
2023-01-17T19:26:44.214Z,3.90
2023-01-17T19:29:13.209Z,3.93
2023-01-17T19:31:44.885Z,3.03
2023-01-17T19:34:15.495Z,4.40
2023-01-17T19:36:44.049Z,3.43
2023-01-17T19:39:12.743Z,3.83
2023-01-17T19:41:46.653Z,3.27
2023-01-17T19:44:16.357Z,3.00
2023-01-17T19:46:46.898Z,2.60
2023-01-17T19:49:17.131Z,2.97
2023-01-17T19:51:45.619Z,4.10
2023-01-17T19:54:16.008Z,5.70
2023-01-17T19:56:44.490Z,4.40
2023-01-17T19:59:15.453Z,4.10
2023-01-17T20:01:44.642Z,4.13
2023-01-17T20:04:13.617Z,3.43
2023-01-17T20:06:42.042Z,5.73
2023-01-17T20:09:10.564Z,3.80
2023-01-17T20:11:39.400Z,3.83
2023-01-17T20:14:07.826Z,4.17
2023-01-17T20:16:40.770Z,4.60
2023-01-17T20:19:09.272Z,4.20
2023-01-17T20:21:37.787Z,5.47
2023-01-17T20:24:06.680Z,3.67
2023-01-17T20:26:36.255Z,3.70
2023-01-17T20:29:12.324Z,2.33
2023-01-17T20:31:43.529Z,3.63
2023-01-17T20:34:14.820Z,3.80
2023-01-17T20:36:43.519Z,3.60
2023-01-17T20:39:14.335Z,3.50
2023-01-17T20:41:44.441Z,2.70
2023-01-17T20:44:16.059Z,2.33
2023-01-17T20:46:45.040Z,2.37
2023-01-17T20:49:16.158Z,3.70
2023-01-17T20:51:46.567Z,3.20
2023-01-17T20:54:17.442Z,3.50
2023-01-17T20:56:48.349Z,4.40
2023-01-17T20:59:19.938Z,2.63
2023-01-17T21:01:48.920Z,5.10
2023-01-17T21:04:19.199Z,2.40
2023-01-17T21:06:48.315Z,2.10
2023-01-17T21:09:18.012Z,2.43
2023-01-17T21:11:46.655Z,2.30
2023-01-17T21:14:15.696Z,2.63
2023-01-17T21:16:44.248Z,4.70
2023-01-17T21:19:15.748Z,4.90
2023-01-17T21:21:46.695Z,3.57
2023-01-17T21:24:19.900Z,3.73
2023-01-17T21:26:48.537Z,2.77
2023-01-17T21:29:17.056Z,3.30
2023-01-17T21:31:46.002Z,3.67
2023-01-17T21:34:15.092Z,1.80
2023-01-17T21:36:44.161Z,2.10
2023-01-17T21:39:19.198Z,3.50
2023-01-17T21:41:50.340Z,2.67
2023-01-17T21:44:23.979Z,1.90
2023-01-17T21:46:56.583Z,2.97
2023-01-17T21:49:25.566Z,2.67
2023-01-17T21:51:54.010Z,2.37
2023-01-17T21:54:46.725Z,2.00
2023-01-17T21:57:39.893Z,2.83
2023-01-17T22:00:12.957Z,2.70
2023-01-17T22:02:42.058Z,2.80
2023-01-17T22:05:11.354Z,3.10
2023-01-17T22:07:40.011Z,3.63
2023-01-17T22:10:09.230Z,2.80
2023-01-17T22:12:37.629Z,3.43
2023-01-17T22:15:06.779Z,1.80
2023-01-17T22:17:35.237Z,1.80
2023-01-17T22:20:03.950Z,2.87
2023-01-17T22:22:34.580Z,2.30
2023-01-17T22:25:03.578Z,2.17
2023-01-17T22:27:32.019Z,2.83
2023-01-17T22:30:00.705Z,2.97
2023-01-17T22:32:30.035Z,3.50
2023-01-17T22:34:58.422Z,2.37
2023-01-17T22:37:27.723Z,3.00
2023-01-17T22:39:56.721Z,2.10
2023-01-17T22:42:25.127Z,2.80
2023-01-17T22:44:53.649Z,2.47
2023-01-17T22:47:22.056Z,2.93
2023-01-17T22:49:50.507Z,2.03
2023-01-17T22:52:18.989Z,3.30
2023-01-17T22:54:47.432Z,2.83
2023-01-17T22:57:15.834Z,2.40
2023-01-17T22:59:44.339Z,2.23
2023-01-17T23:02:14.106Z,3.30
2023-01-17T23:04:44.956Z,3.17
2023-01-17T23:07:13.514Z,2.20
2023-01-17T23:09:42.226Z,1.90
2023-01-17T23:12:11.219Z,3.23
2023-01-17T23:14:58.161Z,2.23
2023-01-17T23:17:45.140Z,2.60
2023-01-17T23:20:13.839Z,6.67
2023-01-17T23:22:42.222Z,3.07
2023-01-17T23:25:15.397Z,2.60
2023-01-17T23:28:04.372Z,2.90
2023-01-17T23:30:38.570Z,5.50
2023-01-17T23:33:08.027Z,5.73
2023-01-17T23:35:41.704Z,4.03
2023-01-17T23:38:30.053Z,3.87
2023-01-17T23:41:21.776Z,5.00
2023-01-17T23:43:55.055Z,3.97
2023-01-17T23:46:25.468Z,3.20
2023-01-17T23:48:55.645Z,4.93
2023-01-17T23:51:24.136Z,2.50
2023-01-17T23:53:58.172Z,3.50
2023-01-17T23:56:26.596Z,7.43
2023-01-17T23:58:55.017Z,4.03
